Terminal Aerodrome Forecast
Issued by NWS

Home | Current Version | Previous Version | Text Only | Print | Product List | Glossary On
Versions: 1 2 3 4 5 6 7 8 9 10 11 12 13
000
FTUS42 TJSJ 251740
TAFJSJ
TAF
TJSJ 251740Z 2518/2618 09014KT P6SM VCSH FEW028 SCT060
     FM252200 09008KT P6SM VCSH FEW025 SCT035
     FM261500 08013KT P6SM VCTS SCT025CB SCT035 BKN050=

USA.gov is the U.S. government's official web portal to all federal, state and local government web resources and services.